Birmingham, NJ (08011)

12:36 AM EST on December 18, 2014 (GMT -0500)
Arneys Mount Road | Change Station
CLOSE
Current Station
Personal Weather Station
Location: Pemberton, NJ
Elevation: 66 ft
Nearby Weather Stations

Elev 66 ft 40.00 °N, 74.69 °W | Updated 6 seconds ago

Clear
Clear
36.5 °F
Feels Like 30 °F
N
8.1
Wind Variable Wind from WNW
Gusts 11.0 mph

Today
High -- | Low -- °F
--% Chance of Precip.
Yesterday
High -- | Low -- °F
Precip. -- in
7:15 AM 4:35 PM
Waning Crescent, 17% visible
Pressure 29.94 in
Visibility 10.0 miles
Clouds Clear
Windchill 30 °F
Dew Point 1 °F
Humidity 22%
Rainfall 0.00 in
Snow Depth Not available.
UV 0 out of 12
Pollen .10 out of 12
Air Quality Not available.
Flu Activity Not available.
METAR KWRI 180458Z AUTO 29011KT 10SM CLR 03/M05 A2993 RMK AO2 SLP139 T00251047 401160025

More Conditions Fewer Conditions

Pressure 29.94 in
Visibility 10.0 miles
Clouds Clear
Windchill 30 °F
Dew Point 1 °F
Humidity 22%
Rainfall 0.00 in
Snow Depth Not available.
UV 0 out of 12
Pollen .10 out of 12
Air Quality Not available.
Flu Activity Not available.
METAR KWRI 180458Z AUTO 29011KT 10SM CLR 03/M05 A2993 RMK AO2 SLP139 T00251047 401160025

More Conditions Fewer Conditions

10-Day Weather Forecast

Almanac

Astronomy

Dec. 18, 2014 Rise Set
Actual Time
Civil Twilight
Nautical Twilight
Astronomical Twilight
Moon
Length of Visible Light
Length of Day
Tomorrow will be .
, % of the Moon is Illuminated

Today's Extremes

State Highs State Lows

Community

WunderPhotos

Upload Photos

1,778,895 photos uploaded!

WunderBlogs® & News

Nearby

Air Quality

  Air Quality AQ Index Pollutant
Not available.

Snow Depth

Station Depth Elevation

Earthquake Activity

City Distance Mag. Time & Date
Minimum magnitude displayed is 2.5.

Coastal Water Temperatures

Place Temperature

Nearby Weather Stations